sensor_id;sensor_type;location;lat;lon;timestamp;temperature;humidity
74364;DHT22;62797;49.740;10.154;2023-04-24T00:01:39;11.90;56.20
74364;DHT22;62797;49.740;10.154;2023-04-24T00:04:05;11.90;56.30
74364;DHT22;62797;49.740;10.154;2023-04-24T00:06:32;11.90;55.80
74364;DHT22;62797;49.740;10.154;2023-04-24T00:09:02;11.90;54.90
74364;DHT22;62797;49.740;10.154;2023-04-24T00:11:28;12.00;54.80
74364;DHT22;62797;49.740;10.154;2023-04-24T00:13:54;11.90;55.50
74364;DHT22;62797;49.740;10.154;2023-04-24T00:16:20;12.00;54.40
74364;DHT22;62797;49.740;10.154;2023-04-24T00:18:45;11.90;55.30
74364;DHT22;62797;49.740;10.154;2023-04-24T00:21:13;11.90;55.50
74364;DHT22;62797;49.740;10.154;2023-04-24T00:23:39;11.80;55.50
74364;DHT22;62797;49.740;10.154;2023-04-24T00:26:04;11.80;55.70
74364;DHT22;62797;49.740;10.154;2023-04-24T00:28:30;11.80;55.80
74364;DHT22;62797;49.740;10.154;2023-04-24T00:30:56;11.90;56.20
74364;DHT22;62797;49.740;10.154;2023-04-24T00:33:21;11.80;55.90
74364;DHT22;62797;49.740;10.154;2023-04-24T00:35:47;11.80;55.70
74364;DHT22;62797;49.740;10.154;2023-04-24T00:38:12;11.90;55.60
74364;DHT22;62797;49.740;10.154;2023-04-24T00:40:40;12.00;54.20
74364;DHT22;62797;49.740;10.154;2023-04-24T00:43:06;12.00;54.50
74364;DHT22;62797;49.740;10.154;2023-04-24T00:45:31;12.00;54.80
74364;DHT22;62797;49.740;10.154;2023-04-24T00:47:57;12.00;54.70
74364;DHT22;62797;49.740;10.154;2023-04-24T00:50:23;12.00;55.60
74364;DHT22;62797;49.740;10.154;2023-04-24T00:52:49;12.00;54.70
74364;DHT22;62797;49.740;10.154;2023-04-24T00:55:16;12.00;55.20
74364;DHT22;62797;49.740;10.154;2023-04-24T00:57:42;12.00;55.10
74364;DHT22;62797;49.740;10.154;2023-04-24T01:00:09;11.90;55.60
74364;DHT22;62797;49.740;10.154;2023-04-24T01:02:36;12.00;55.60
74364;DHT22;62797;49.740;10.154;2023-04-24T01:05:02;12.00;55.50
74364;DHT22;62797;49.740;10.154;2023-04-24T01:07:28;12.00;55.80
74364;DHT22;62797;49.740;10.154;2023-04-24T01:09:54;12.00;55.10
74364;DHT22;62797;49.740;10.154;2023-04-24T01:12:20;11.90;56.10
74364;DHT22;62797;49.740;10.154;2023-04-24T01:14:45;11.90;56.30
74364;DHT22;62797;49.740;10.154;2023-04-24T01:17:11;11.90;56.60
74364;DHT22;62797;49.740;10.154;2023-04-24T01:19:37;11.90;55.80
74364;DHT22;62797;49.740;10.154;2023-04-24T01:22:03;11.80;56.50
74364;DHT22;62797;49.740;10.154;2023-04-24T01:24:28;11.80;57.40
74364;DHT22;62797;49.740;10.154;2023-04-24T01:26:54;11.80;57.30
74364;DHT22;62797;49.740;10.154;2023-04-24T01:29:20;11.80;56.70
74364;DHT22;62797;49.740;10.154;2023-04-24T01:31:46;11.80;56.50
74364;DHT22;62797;49.740;10.154;2023-04-24T01:34:11;11.70;57.30
74364;DHT22;62797;49.740;10.154;2023-04-24T01:36:37;11.70;57.60
74364;DHT22;62797;49.740;10.154;2023-04-24T01:39:03;11.70;58.20
74364;DHT22;62797;49.740;10.154;2023-04-24T01:41:29;11.70;57.70
74364;DHT22;62797;49.740;10.154;2023-04-24T01:43:54;11.80;58.50
74364;DHT22;62797;49.740;10.154;2023-04-24T01:46:20;11.70;58.00
74364;DHT22;62797;49.740;10.154;2023-04-24T01:48:48;11.80;57.40
74364;DHT22;62797;49.740;10.154;2023-04-24T01:51:14;11.80;56.40
74364;DHT22;62797;49.740;10.154;2023-04-24T01:53:39;11.80;56.40
74364;DHT22;62797;49.740;10.154;2023-04-24T01:56:05;11.80;56.80
74364;DHT22;62797;49.740;10.154;2023-04-24T01:58:30;11.90;57.10
74364;DHT22;62797;49.740;10.154;2023-04-24T02:00:56;12.00;56.30
74364;DHT22;62797;49.740;10.154;2023-04-24T02:03:24;11.90;54.90
74364;DHT22;62797;49.740;10.154;2023-04-24T02:05:50;11.90;55.40
74364;DHT22;62797;49.740;10.154;2023-04-24T02:08:16;11.80;55.50
74364;DHT22;62797;49.740;10.154;2023-04-24T02:10:41;11.90;54.80
74364;DHT22;62797;49.740;10.154;2023-04-24T02:13:07;11.80;56.20
74364;DHT22;62797;49.740;10.154;2023-04-24T02:15:32;11.80;56.40
74364;DHT22;62797;49.740;10.154;2023-04-24T02:17:58;11.80;55.50
74364;DHT22;62797;49.740;10.154;2023-04-24T02:20:23;11.80;55.20
74364;DHT22;62797;49.740;10.154;2023-04-24T02:22:49;11.80;55.10
74364;DHT22;62797;49.740;10.154;2023-04-24T02:25:14;11.80;55.70
74364;DHT22;62797;49.740;10.154;2023-04-24T02:27:40;11.80;56.10
74364;DHT22;62797;49.740;10.154;2023-04-24T02:30:06;11.80;58.20
74364;DHT22;62797;49.740;10.154;2023-04-24T02:32:31;11.70;56.50
74364;DHT22;62797;49.740;10.154;2023-04-24T02:34:57;11.70;56.80
74364;DHT22;62797;49.740;10.154;2023-04-24T02:37:22;11.70;58.30
74364;DHT22;62797;49.740;10.154;2023-04-24T02:39:48;11.70;58.50
74364;DHT22;62797;49.740;10.154;2023-04-24T02:42:14;11.60;57.60
74364;DHT22;62797;49.740;10.154;2023-04-24T02:44:39;11.60;56.60
74364;DHT22;62797;49.740;10.154;2023-04-24T02:47:05;11.60;56.80
74364;DHT22;62797;49.740;10.154;2023-04-24T02:49:31;11.60;57.50
74364;DHT22;62797;49.740;10.154;2023-04-24T02:51:56;11.60;57.00
74364;DHT22;62797;49.740;10.154;2023-04-24T02:54:22;11.50;56.20
74364;DHT22;62797;49.740;10.154;2023-04-24T02:56:48;11.50;56.10
74364;DHT22;62797;49.740;10.154;2023-04-24T02:59:13;11.60;55.60
74364;DHT22;62797;49.740;10.154;2023-04-24T03:01:39;11.60;55.80
74364;DHT22;62797;49.740;10.154;2023-04-24T03:04:04;11.60;55.10
74364;DHT22;62797;49.740;10.154;2023-04-24T03:06:30;11.50;55.40
74364;DHT22;62797;49.740;10.154;2023-04-24T03:08:58;11.50;55.40
74364;DHT22;62797;49.740;10.154;2023-04-24T03:11:24;11.50;55.40
74364;DHT22;62797;49.740;10.154;2023-04-24T03:13:50;11.50;55.10
74364;DHT22;62797;49.740;10.154;2023-04-24T03:16:16;11.40;55.90
74364;DHT22;62797;49.740;10.154;2023-04-24T03:18:42;11.40;55.80
74364;DHT22;62797;49.740;10.154;2023-04-24T03:21:08;11.40;55.50
74364;DHT22;62797;49.740;10.154;2023-04-24T03:23:34;11.40;55.80
74364;DHT22;62797;49.740;10.154;2023-04-24T03:26:00;11.40;55.90
74364;DHT22;62797;49.740;10.154;2023-04-24T03:28:26;11.40;55.10
74364;DHT22;62797;49.740;10.154;2023-04-24T03:31:02;11.40;55.40
74364;DHT22;62797;49.740;10.154;2023-04-24T03:33:32;11.40;55.70
74364;DHT22;62797;49.740;10.154;2023-04-24T03:36:00;11.40;54.90
74364;DHT22;62797;49.740;10.154;2023-04-24T03:38:28;11.30;55.10
74364;DHT22;62797;49.740;10.154;2023-04-24T03:41:22;11.30;55.50
74364;DHT22;62797;49.740;10.154;2023-04-24T03:43:52;11.30;56.40
74364;DHT22;62797;49.740;10.154;2023-04-24T03:46:19;11.30;55.90
74364;DHT22;62797;49.740;10.154;2023-04-24T03:48:51;11.30;56.10
74364;DHT22;62797;49.740;10.154;2023-04-24T03:51:18;11.30;57.40
74364;DHT22;62797;49.740;10.154;2023-04-24T03:53:47;11.20;56.80
74364;DHT22;62797;49.740;10.154;2023-04-24T03:56:16;11.30;56.40
74364;DHT22;62797;49.740;10.154;2023-04-24T03:58:42;11.20;56.10
74364;DHT22;62797;49.740;10.154;2023-04-24T04:01:08;11.30;56.40
74364;DHT22;62797;49.740;10.154;2023-04-24T04:03:46;11.20;55.90
74364;DHT22;62797;49.740;10.154;2023-04-24T04:06:15;11.20;56.50
74364;DHT22;62797;49.740;10.154;2023-04-24T04:08:41;11.20;56.40
74364;DHT22;62797;49.740;10.154;2023-04-24T04:11:07;11.10;56.50
74364;DHT22;62797;49.740;10.154;2023-04-24T04:13:33;11.10;56.70
74364;DHT22;62797;49.740;10.154;2023-04-24T04:15:59;11.00;57.20
74364;DHT22;62797;49.740;10.154;2023-04-24T04:18:24;11.00;57.00
74364;DHT22;62797;49.740;10.154;2023-04-24T04:20:51;11.00;57.70
74364;DHT22;62797;49.740;10.154;2023-04-24T04:23:16;11.00;57.60
74364;DHT22;62797;49.740;10.154;2023-04-24T04:25:52;10.90;58.20
74364;DHT22;62797;49.740;10.154;2023-04-24T04:28:21;11.00;57.80
74364;DHT22;62797;49.740;10.154;2023-04-24T04:30:48;11.00;57.90
74364;DHT22;62797;49.740;10.154;2023-04-24T04:33:14;10.90;59.30
74364;DHT22;62797;49.740;10.154;2023-04-24T04:35:43;11.00;59.60
74364;DHT22;62797;49.740;10.154;2023-04-24T04:38:09;11.00;59.70
74364;DHT22;62797;49.740;10.154;2023-04-24T04:40:46;11.00;60.40
74364;DHT22;62797;49.740;10.154;2023-04-24T04:43:13;10.90;59.40
74364;DHT22;62797;49.740;10.154;2023-04-24T04:45:46;10.90;60.00
74364;DHT22;62797;49.740;10.154;2023-04-24T04:48:43;10.80;59.20
74364;DHT22;62797;49.740;10.154;2023-04-24T04:51:09;10.90;58.80
74364;DHT22;62797;49.740;10.154;2023-04-24T04:53:35;10.90;58.60
74364;DHT22;62797;49.740;10.154;2023-04-24T04:56:01;10.90;58.50
74364;DHT22;62797;49.740;10.154;2023-04-24T04:58:34;11.00;57.60
74364;DHT22;62797;49.740;10.154;2023-04-24T05:01:00;10.90;58.80
74364;DHT22;62797;49.740;10.154;2023-04-24T05:03:30;11.00;58.40
74364;DHT22;62797;49.740;10.154;2023-04-24T05:06:01;11.10;57.40
74364;DHT22;62797;49.740;10.154;2023-04-24T05:08:30;11.10;58.30
74364;DHT22;62797;49.740;10.154;2023-04-24T05:10:56;11.20;57.90
74364;DHT22;62797;49.740;10.154;2023-04-24T05:13:25;11.20;56.30
74364;DHT22;62797;49.740;10.154;2023-04-24T05:15:51;11.30;56.30
74364;DHT22;62797;49.740;10.154;2023-04-24T05:18:16;11.50;55.30
74364;DHT22;62797;49.740;10.154;2023-04-24T05:20:42;11.40;57.00
74364;DHT22;62797;49.740;10.154;2023-04-24T05:23:09;11.30;57.90
74364;DHT22;62797;49.740;10.154;2023-04-24T05:25:37;11.30;58.50
74364;DHT22;62797;49.740;10.154;2023-04-24T05:28:08;11.30;58.40
74364;DHT22;62797;49.740;10.154;2023-04-24T05:30:33;11.10;58.20
74364;DHT22;62797;49.740;10.154;2023-04-24T05:33:00;11.00;58.30
74364;DHT22;62797;49.740;10.154;2023-04-24T05:35:25;11.10;57.90
74364;DHT22;62797;49.740;10.154;2023-04-24T05:37:51;11.10;58.20
74364;DHT22;62797;49.740;10.154;2023-04-24T05:40:17;11.20;57.70
74364;DHT22;62797;49.740;10.154;2023-04-24T05:42:42;11.30;57.20
74364;DHT22;62797;49.740;10.154;2023-04-24T05:45:08;11.20;56.90
74364;DHT22;62797;49.740;10.154;2023-04-24T05:47:34;11.30;53.20
74364;DHT22;62797;49.740;10.154;2023-04-24T05:50:00;11.20;51.70
74364;DHT22;62797;49.740;10.154;2023-04-24T05:52:26;11.30;50.20
74364;DHT22;62797;49.740;10.154;2023-04-24T05:54:52;11.20;50.30
74364;DHT22;62797;49.740;10.154;2023-04-24T05:57:22;11.20;49.80
74364;DHT22;62797;49.740;10.154;2023-04-24T05:59:59;11.20;49.10
74364;DHT22;62797;49.740;10.154;2023-04-24T06:02:25;11.10;48.10
74364;DHT22;62797;49.740;10.154;2023-04-24T06:04:51;11.20;47.30
74364;DHT22;62797;49.740;10.154;2023-04-24T06:07:17;11.20;46.70
74364;DHT22;62797;49.740;10.154;2023-04-24T06:09:44;11.20;46.90
74364;DHT22;62797;49.740;10.154;2023-04-24T06:12:10;10.80;46.40
74364;DHT22;62797;49.740;10.154;2023-04-24T06:14:56;10.90;46.90
74364;DHT22;62797;49.740;10.154;2023-04-24T06:18:00;11.00;47.20
74364;DHT22;62797;49.740;10.154;2023-04-24T06:20:26;10.90;47.90
74364;DHT22;62797;49.740;10.154;2023-04-24T06:22:52;11.00;48.30
74364;DHT22;62797;49.740;10.154;2023-04-24T06:25:17;11.10;48.60
74364;DHT22;62797;49.740;10.154;2023-04-24T06:27:44;11.10;49.30
74364;DHT22;62797;49.740;10.154;2023-04-24T06:30:09;11.20;49.50
74364;DHT22;62797;49.740;10.154;2023-04-24T06:32:35;11.30;49.90
74364;DHT22;62797;49.740;10.154;2023-04-24T06:35:01;11.40;50.00
74364;DHT22;62797;49.740;10.154;2023-04-24T06:37:26;11.40;46.30
74364;DHT22;62797;49.740;10.154;2023-04-24T06:39:52;11.30;45.00
74364;DHT22;62797;49.740;10.154;2023-04-24T06:42:17;11.20;45.50
74364;DHT22;62797;49.740;10.154;2023-04-24T06:44:46;11.30;44.60
74364;DHT22;62797;49.740;10.154;2023-04-24T06:47:11;11.20;43.10
74364;DHT22;62797;49.740;10.154;2023-04-24T06:49:39;11.20;43.50
74364;DHT22;62797;49.740;10.154;2023-04-24T06:52:05;11.20;43.90
74364;DHT22;62797;49.740;10.154;2023-04-24T06:54:31;11.20;43.50
74364;DHT22;62797;49.740;10.154;2023-04-24T06:56:56;11.10;43.20
74364;DHT22;62797;49.740;10.154;2023-04-24T06:59:25;11.30;42.90
74364;DHT22;62797;49.740;10.154;2023-04-24T07:01:51;11.30;42.60
74364;DHT22;62797;49.740;10.154;2023-04-24T07:04:17;11.30;42.20
74364;DHT22;62797;49.740;10.154;2023-04-24T07:06:42;11.30;40.60
74364;DHT22;62797;49.740;10.154;2023-04-24T07:09:08;11.30;40.80
74364;DHT22;62797;49.740;10.154;2023-04-24T07:11:34;11.30;41.40
74364;DHT22;62797;49.740;10.154;2023-04-24T07:14:00;11.30;40.90
74364;DHT22;62797;49.740;10.154;2023-04-24T07:16:26;11.30;40.40
74364;DHT22;62797;49.740;10.154;2023-04-24T07:18:52;11.40;39.90
74364;DHT22;62797;49.740;10.154;2023-04-24T07:21:17;11.40;38.90
74364;DHT22;62797;49.740;10.154;2023-04-24T07:23:43;11.50;40.50
74364;DHT22;62797;49.740;10.154;2023-04-24T07:26:08;11.50;39.30
74364;DHT22;62797;49.740;10.154;2023-04-24T07:28:34;11.60;37.60
74364;DHT22;62797;49.740;10.154;2023-04-24T07:31:00;11.60;38.30
74364;DHT22;62797;49.740;10.154;2023-04-24T07:33:26;11.70;37.50
74364;DHT22;62797;49.740;10.154;2023-04-24T07:35:51;11.60;38.20
74364;DHT22;62797;49.740;10.154;2023-04-24T07:38:17;11.60;38.60
74364;DHT22;62797;49.740;10.154;2023-04-24T07:40:45;11.70;39.80
74364;DHT22;62797;49.740;10.154;2023-04-24T07:43:11;11.90;38.30
74364;DHT22;62797;49.740;10.154;2023-04-24T07:45:36;12.00;38.30
74364;DHT22;62797;49.740;10.154;2023-04-24T07:48:02;12.00;38.70
74364;DHT22;62797;49.740;10.154;2023-04-24T07:50:28;12.00;38.20
74364;DHT22;62797;49.740;10.154;2023-04-24T07:52:54;12.10;37.50
74364;DHT22;62797;49.740;10.154;2023-04-24T07:55:20;12.10;38.30
74364;DHT22;62797;49.740;10.154;2023-04-24T07:57:45;12.20;38.10
74364;DHT22;62797;49.740;10.154;2023-04-24T08:00:11;12.20;38.00
74364;DHT22;62797;49.740;10.154;2023-04-24T08:02:37;12.30;38.70
74364;DHT22;62797;49.740;10.154;2023-04-24T08:05:02;12.40;37.40
74364;DHT22;62797;49.740;10.154;2023-04-24T08:07:28;12.40;36.20
74364;DHT22;62797;49.740;10.154;2023-04-24T08:09:54;12.30;37.00
74364;DHT22;62797;49.740;10.154;2023-04-24T08:12:20;12.30;35.40
74364;DHT22;62797;49.740;10.154;2023-04-24T08:14:45;12.30;35.30
74364;DHT22;62797;49.740;10.154;2023-04-24T08:17:11;12.10;36.80
74364;DHT22;62797;49.740;10.154;2023-04-24T08:19:36;12.10;37.00
74364;DHT22;62797;49.740;10.154;2023-04-24T08:22:02;12.20;36.10
74364;DHT22;62797;49.740;10.154;2023-04-24T08:24:29;12.10;36.00
74364;DHT22;62797;49.740;10.154;2023-04-24T08:26:54;12.00;36.40
74364;DHT22;62797;49.740;10.154;2023-04-24T08:29:22;11.90;37.70
74364;DHT22;62797;49.740;10.154;2023-04-24T08:31:47;11.90;38.50
74364;DHT22;62797;49.740;10.154;2023-04-24T08:34:13;11.90;39.40
74364;DHT22;62797;49.740;10.154;2023-04-24T08:36:38;11.70;38.70
74364;DHT22;62797;49.740;10.154;2023-04-24T08:39:06;11.80;39.10
74364;DHT22;62797;49.740;10.154;2023-04-24T08:41:32;11.70;39.50
74364;DHT22;62797;49.740;10.154;2023-04-24T08:43:58;11.50;41.70
74364;DHT22;62797;49.740;10.154;2023-04-24T08:46:24;11.50;42.60
74364;DHT22;62797;49.740;10.154;2023-04-24T08:48:50;11.40;42.70
74364;DHT22;62797;49.740;10.154;2023-04-24T08:51:17;11.40;44.40
74364;DHT22;62797;49.740;10.154;2023-04-24T08:53:43;11.30;47.30
74364;DHT22;62797;49.740;10.154;2023-04-24T08:56:08;11.30;48.30
74364;DHT22;62797;49.740;10.154;2023-04-24T08:58:34;11.20;49.80
74364;DHT22;62797;49.740;10.154;2023-04-24T09:01:00;11.30;48.20
74364;DHT22;62797;49.740;10.154;2023-04-24T09:03:27;11.30;46.30
74364;DHT22;62797;49.740;10.154;2023-04-24T09:05:53;11.30;46.90
74364;DHT22;62797;49.740;10.154;2023-04-24T09:08:20;11.20;47.70
74364;DHT22;62797;49.740;10.154;2023-04-24T09:10:48;11.30;46.60
74364;DHT22;62797;49.740;10.154;2023-04-24T09:13:14;11.00;48.00
74364;DHT22;62797;49.740;10.154;2023-04-24T09:15:40;11.00;47.40
74364;DHT22;62797;49.740;10.154;2023-04-24T09:18:06;10.80;47.10
74364;DHT22;62797;49.740;10.154;2023-04-24T09:20:31;10.60;44.50
74364;DHT22;62797;49.740;10.154;2023-04-24T09:22:57;10.70;41.60
74364;DHT22;62797;49.740;10.154;2023-04-24T09:25:25;10.90;38.60
74364;DHT22;62797;49.740;10.154;2023-04-24T09:27:59;11.10;39.10
74364;DHT22;62797;49.740;10.154;2023-04-24T09:30:25;11.20;35.60
74364;DHT22;62797;49.740;10.154;2023-04-24T09:32:56;11.20;34.20
74364;DHT22;62797;49.740;10.154;2023-04-24T09:35:34;11.20;35.80
74364;DHT22;62797;49.740;10.154;2023-04-24T09:38:00;11.30;36.30
74364;DHT22;62797;49.740;10.154;2023-04-24T09:40:25;11.60;36.40
74364;DHT22;62797;49.740;10.154;2023-04-24T09:42:57;11.90;35.80
74364;DHT22;62797;49.740;10.154;2023-04-24T09:45:36;12.10;34.50
74364;DHT22;62797;49.740;10.154;2023-04-24T09:48:02;12.20;34.20
74364;DHT22;62797;49.740;10.154;2023-04-24T09:50:29;12.30;33.00
74364;DHT22;62797;49.740;10.154;2023-04-24T09:52:58;12.10;34.30
74364;DHT22;62797;49.740;10.154;2023-04-24T09:55:24;12.00;34.10
74364;DHT22;62797;49.740;10.154;2023-04-24T09:57:55;12.10;34.60
74364;DHT22;62797;49.740;10.154;2023-04-24T10:00:25;12.00;34.70
74364;DHT22;62797;49.740;10.154;2023-04-24T10:02:54;12.10;34.40
74364;DHT22;62797;49.740;10.154;2023-04-24T10:05:22;12.30;34.70
74364;DHT22;62797;49.740;10.154;2023-04-24T10:07:48;12.50;33.30
74364;DHT22;62797;49.740;10.154;2023-04-24T10:10:13;12.70;33.00
74364;DHT22;62797;49.740;10.154;2023-04-24T10:12:39;12.70;31.00
74364;DHT22;62797;49.740;10.154;2023-04-24T10:15:05;12.60;31.80
74364;DHT22;62797;49.740;10.154;2023-04-24T10:17:31;12.70;31.90
74364;DHT22;62797;49.740;10.154;2023-04-24T10:19:57;13.00;31.60
74364;DHT22;62797;49.740;10.154;2023-04-24T10:22:24;13.30;29.00
74364;DHT22;62797;49.740;10.154;2023-04-24T10:24:50;13.50;28.50
74364;DHT22;62797;49.740;10.154;2023-04-24T10:27:17;13.00;28.50
74364;DHT22;62797;49.740;10.154;2023-04-24T10:29:43;13.20;28.10
74364;DHT22;62797;49.740;10.154;2023-04-24T10:32:10;13.50;27.40
74364;DHT22;62797;49.740;10.154;2023-04-24T10:34:36;13.50;27.30
74364;DHT22;62797;49.740;10.154;2023-04-24T10:37:02;13.30;25.30
74364;DHT22;62797;49.740;10.154;2023-04-24T10:39:27;13.50;25.80
74364;DHT22;62797;49.740;10.154;2023-04-24T10:41:54;13.60;25.60
74364;DHT22;62797;49.740;10.154;2023-04-24T10:44:22;13.70;25.60
74364;DHT22;62797;49.740;10.154;2023-04-24T10:46:52;14.10;25.90
74364;DHT22;62797;49.740;10.154;2023-04-24T10:49:18;14.10;26.10
74364;DHT22;62797;49.740;10.154;2023-04-24T10:51:53;13.90;24.60
74364;DHT22;62797;49.740;10.154;2023-04-24T10:54:35;13.60;24.90
74364;DHT22;62797;49.740;10.154;2023-04-24T10:59:45;13.50;25.80
74364;DHT22;62797;49.740;10.154;2023-04-24T11:02:10;13.50;26.10
74364;DHT22;62797;49.740;10.154;2023-04-24T11:04:39;13.30;26.10
74364;DHT22;62797;49.740;10.154;2023-04-24T11:07:05;13.40;26.90
74364;DHT22;62797;49.740;10.154;2023-04-24T11:09:31;13.20;28.00
74364;DHT22;62797;49.740;10.154;2023-04-24T11:12:07;13.30;28.60
74364;DHT22;62797;49.740;10.154;2023-04-24T11:17:31;12.90;29.70
74364;DHT22;62797;49.740;10.154;2023-04-24T11:20:01;12.80;29.60
74364;DHT22;62797;49.740;10.154;2023-04-24T11:22:29;12.80;29.40
74364;DHT22;62797;49.740;10.154;2023-04-24T11:24:57;12.90;29.10
74364;DHT22;62797;49.740;10.154;2023-04-24T11:27:38;13.20;27.90
74364;DHT22;62797;49.740;10.154;2023-04-24T11:30:04;13.30;26.80
74364;DHT22;62797;49.740;10.154;2023-04-24T11:35:00;12.80;28.70
74364;DHT22;62797;49.740;10.154;2023-04-24T11:37:36;12.80;28.60
74364;DHT22;62797;49.740;10.154;2023-04-24T11:40:03;12.50;29.20
74364;DHT22;62797;49.740;10.154;2023-04-24T11:42:33;12.20;29.60
74364;DHT22;62797;49.740;10.154;2023-04-24T11:44:58;12.00;30.00
74364;DHT22;62797;49.740;10.154;2023-04-24T11:47:29;12.20;29.80
74364;DHT22;62797;49.740;10.154;2023-04-24T11:49:55;12.50;29.30
74364;DHT22;62797;49.740;10.154;2023-04-24T11:52:20;12.80;29.00
74364;DHT22;62797;49.740;10.154;2023-04-24T11:54:47;13.00;27.30
74364;DHT22;62797;49.740;10.154;2023-04-24T11:57:12;13.00;28.20
74364;DHT22;62797;49.740;10.154;2023-04-24T11:59:38;13.10;28.50
74364;DHT22;62797;49.740;10.154;2023-04-24T12:02:03;13.30;27.40
74364;DHT22;62797;49.740;10.154;2023-04-24T12:04:38;13.10;27.80
74364;DHT22;62797;49.740;10.154;2023-04-24T12:07:04;12.80;27.80
74364;DHT22;62797;49.740;10.154;2023-04-24T12:09:43;12.70;28.70
74364;DHT22;62797;49.740;10.154;2023-04-24T12:12:10;12.60;29.20
74364;DHT22;62797;49.740;10.154;2023-04-24T12:14:42;12.40;31.20
74364;DHT22;62797;49.740;10.154;2023-04-24T12:17:08;12.20;37.20
74364;DHT22;62797;49.740;10.154;2023-04-24T12:19:33;11.70;37.00
74364;DHT22;62797;49.740;10.154;2023-04-24T12:21:59;11.80;39.40
74364;DHT22;62797;49.740;10.154;2023-04-24T12:24:25;12.40;39.40
74364;DHT22;62797;49.740;10.154;2023-04-24T12:26:51;12.80;34.10
74364;DHT22;62797;49.740;10.154;2023-04-24T12:29:20;12.90;29.60
74364;DHT22;62797;49.740;10.154;2023-04-24T12:31:46;13.30;29.90
74364;DHT22;62797;49.740;10.154;2023-04-24T12:34:18;13.50;30.20
74364;DHT22;62797;49.740;10.154;2023-04-24T12:36:45;13.80;28.60
74364;DHT22;62797;49.740;10.154;2023-04-24T12:39:17;13.70;28.20
74364;DHT22;62797;49.740;10.154;2023-04-24T12:41:56;14.00;28.30
74364;DHT22;62797;49.740;10.154;2023-04-24T12:44:33;14.20;26.60
74364;DHT22;62797;49.740;10.154;2023-04-24T12:47:00;14.20;26.00
74364;DHT22;62797;49.740;10.154;2023-04-24T12:49:26;14.00;24.90
74364;DHT22;62797;49.740;10.154;2023-04-24T12:51:52;14.30;26.50
74364;DHT22;62797;49.740;10.154;2023-04-24T12:54:17;14.60;25.20
74364;DHT22;62797;49.740;10.154;2023-04-24T12:56:43;14.80;24.10
74364;DHT22;62797;49.740;10.154;2023-04-24T12:59:08;15.00;24.20
74364;DHT22;62797;49.740;10.154;2023-04-24T13:01:34;14.60;24.70
74364;DHT22;62797;49.740;10.154;2023-04-24T13:03:59;14.40;25.00
74364;DHT22;62797;49.740;10.154;2023-04-24T13:06:24;14.10;24.40
74364;DHT22;62797;49.740;10.154;2023-04-24T13:08:51;14.20;25.70
74364;DHT22;62797;49.740;10.154;2023-04-24T13:11:17;14.30;26.10
74364;DHT22;62797;49.740;10.154;2023-04-24T13:13:43;13.80;26.40
74364;DHT22;62797;49.740;10.154;2023-04-24T13:16:08;13.50;25.70
74364;DHT22;62797;49.740;10.154;2023-04-24T13:18:34;13.70;26.20
74364;DHT22;62797;49.740;10.154;2023-04-24T13:20:59;13.70;25.20
74364;DHT22;62797;49.740;10.154;2023-04-24T13:23:25;13.90;25.60
74364;DHT22;62797;49.740;10.154;2023-04-24T13:25:51;13.90;25.80
74364;DHT22;62797;49.740;10.154;2023-04-24T13:28:17;14.00;24.10
74364;DHT22;62797;49.740;10.154;2023-04-24T13:30:42;14.10;25.10
74364;DHT22;62797;49.740;10.154;2023-04-24T13:33:08;14.60;24.40
74364;DHT22;62797;49.740;10.154;2023-04-24T13:35:36;14.80;23.80
74364;DHT22;62797;49.740;10.154;2023-04-24T13:38:02;14.30;24.00
74364;DHT22;62797;49.740;10.154;2023-04-24T13:40:31;14.20;24.50
74364;DHT22;62797;49.740;10.154;2023-04-24T13:42:56;14.20;24.20
74364;DHT22;62797;49.740;10.154;2023-04-24T13:45:22;14.70;23.10
74364;DHT22;62797;49.740;10.154;2023-04-24T13:47:47;14.80;22.80
74364;DHT22;62797;49.740;10.154;2023-04-24T13:50:13;14.50;23.10
74364;DHT22;62797;49.740;10.154;2023-04-24T13:52:40;14.70;22.60
74364;DHT22;62797;49.740;10.154;2023-04-24T13:55:06;14.80;21.80
74364;DHT22;62797;49.740;10.154;2023-04-24T13:57:31;14.60;21.80
74364;DHT22;62797;49.740;10.154;2023-04-24T13:59:57;14.60;22.20
74364;DHT22;62797;49.740;10.154;2023-04-24T14:02:26;14.50;21.70
74364;DHT22;62797;49.740;10.154;2023-04-24T14:04:52;14.00;23.10
74364;DHT22;62797;49.740;10.154;2023-04-24T14:07:17;13.90;23.20
74364;DHT22;62797;49.740;10.154;2023-04-24T14:09:43;14.00;23.70
74364;DHT22;62797;49.740;10.154;2023-04-24T14:12:08;13.70;24.40
74364;DHT22;62797;49.740;10.154;2023-04-24T14:14:34;13.70;24.10
74364;DHT22;62797;49.740;10.154;2023-04-24T14:17:00;13.70;24.00
74364;DHT22;62797;49.740;10.154;2023-04-24T14:19:25;13.50;24.00
74364;DHT22;62797;49.740;10.154;2023-04-24T14:21:51;13.50;24.50
74364;DHT22;62797;49.740;10.154;2023-04-24T14:24:16;13.50;24.50
74364;DHT22;62797;49.740;10.154;2023-04-24T14:26:42;13.00;24.80
74364;DHT22;62797;49.740;10.154;2023-04-24T14:29:07;12.60;26.60
74364;DHT22;62797;49.740;10.154;2023-04-24T14:31:33;12.30;32.60
74364;DHT22;62797;49.740;10.154;2023-04-24T14:33:58;11.80;41.50
74364;DHT22;62797;49.740;10.154;2023-04-24T14:36:24;11.20;46.40
74364;DHT22;62797;49.740;10.154;2023-04-24T14:38:50;11.00;50.10
74364;DHT22;62797;49.740;10.154;2023-04-24T14:41:15;10.90;50.50
74364;DHT22;62797;49.740;10.154;2023-04-24T14:43:41;11.00;53.30
74364;DHT22;62797;49.740;10.154;2023-04-24T14:46:07;11.20;49.90
74364;DHT22;62797;49.740;10.154;2023-04-24T14:48:32;11.40;47.80
74364;DHT22;62797;49.740;10.154;2023-04-24T14:50:58;11.70;47.60
74364;DHT22;62797;49.740;10.154;2023-04-24T14:53:23;12.60;44.60
74364;DHT22;62797;49.740;10.154;2023-04-24T14:55:49;13.40;36.50
74364;DHT22;62797;49.740;10.154;2023-04-24T14:58:14;13.90;35.30
74364;DHT22;62797;49.740;10.154;2023-04-24T15:00:40;14.30;31.70
74364;DHT22;62797;49.740;10.154;2023-04-24T15:03:05;14.30;28.40
74364;DHT22;62797;49.740;10.154;2023-04-24T15:05:31;13.90;27.30
74364;DHT22;62797;49.740;10.154;2023-04-24T15:07:57;14.60;28.20
74364;DHT22;62797;49.740;10.154;2023-04-24T15:10:22;15.10;27.10
74364;DHT22;62797;49.740;10.154;2023-04-24T15:12:49;14.80;25.80
74364;DHT22;62797;49.740;10.154;2023-04-24T15:15:15;14.60;25.50
74364;DHT22;62797;49.740;10.154;2023-04-24T15:17:40;14.40;26.20
74364;DHT22;62797;49.740;10.154;2023-04-24T15:20:06;14.30;25.30
74364;DHT22;62797;49.740;10.154;2023-04-24T15:22:33;14.50;24.80